Time;durP1;ratioP1;P1;durP2;ratioP2;P2;SDS_P1;SDS_P2;PMS_P1;PMS_P2;Temp;Humidity;BMP_temperature;BMP_pressure;BME280_temperature;BME280_humidity;BME280_pressure;Samples;Min_cycle;Max_cycle;Signal;HPM_P1;HPM_P2
2021/09/27 00:05:44;;;;;;;15.85;10.68;;;;;;;24.17;54.99;101535.06;5030279;28;20048;-71
2021/09/27 00:09:56;;;;;;;14.88;10.00;;;;;;;24.16;55.29;101539.56;5027059;28;20056;-71
2021/09/27 00:14:13;;;;;;;12.50;9.45;;;;;;;24.03;55.55;101534.94;5023555;28;20044;-70
2021/09/27 00:21:55;;;;;;;13.05;9.45;;;;;;;24.07;55.49;101541.56;5049982;22;20055;-69
2021/09/27 00:30:35;;;;;;;14.43;9.55;;;;;;;23.95;55.66;101537.75;4922893;29;20081;-70
2021/09/27 00:35:09;;;;;;;12.00;9.10;;;;;;;23.83;56.05;101535.75;4996218;28;20565;-70
2021/09/27 00:39:47;;;;;;;14.18;9.48;;;;;;;23.82;55.99;101526.97;4994438;28;20170;-70
2021/09/27 00:44:12;;;;;;;13.50;9.73;;;;;;;23.80;55.99;101516.50;4998858;28;20049;-70
2021/09/27 00:48:27;;;;;;;14.85;9.60;;;;;;;23.84;55.81;101530.25;4986308;28;20089;-69
2021/09/27 01:45:10;;;;;;;12.35;9.43;;;;;;;23.57;56.45;101502.56;5032197;28;20043;-70
2021/09/27 01:49:19;;;;;;;14.27;10.57;;;;;;;23.58;56.47;101498.91;5000186;28;20388;-74
2021/09/27 01:53:31;;;;;;;13.05;9.75;;;;;;;23.58;56.41;101493.59;5018442;28;20135;-73
2021/09/27 01:57:21;;;;;;;16.38;9.98;;;;;;;23.62;56.11;101496.69;4968572;28;20195;-74
2021/09/27 02:01:18;;;;;;;13.93;10.10;;;;;;;23.61;56.39;101506.50;4977085;28;20049;-74
2021/09/27 02:05:20;;;;;;;12.85;9.88;;;;;;;23.61;56.12;101498.53;4981573;28;20038;-74
2021/09/27 02:20:56;;;;;;;13.77;8.68;;;;;;;23.54;56.31;101499.44;4903323;26;20015;-71
2021/09/27 02:24:41;;;;;;;15.15;9.50;;;;;;;23.55;56.32;101491.28;5017786;28;20811;-71
2021/09/27 02:28:42;;;;;;;13.65;9.63;;;;;;;23.60;56.04;101493.41;4998236;28;20068;-71
2021/09/27 02:32:37;;;;;;;;;;;;;;;23.56;56.30;101486.78;4998308;28;20635;-72
2021/09/27 02:36:44;;;;;;;14.80;9.40;;;;;;;23.58;56.17;101484.78;5014029;28;19928;-72
2021/09/27 03:00:36;;;;;;;11.77;8.73;;;;;;;23.48;56.43;101461.13;4956758;28;20080;-68
2021/09/27 03:04:35;;;;;;;14.25;9.70;;;;;;;23.50;56.38;101465.25;5031294;28;20102;-68
2021/09/27 03:11:43;;;;;;;11.30;8.68;;;;;;;23.46;56.08;101465.81;5047748;28;20397;-68
2021/09/27 03:15:03;;;;;;;12.38;8.75;;;;;;;23.50;56.06;101462.56;5043115;28;20508;-68
2021/09/27 03:18:53;;;;;;;12.13;8.55;;;;;;;23.52;56.07;101462.41;5013323;28;20042;-68
2021/09/27 03:22:42;;;;;;;13.65;9.27;;;;;;;23.38;56.44;101465.94;5007689;28;20052;-68
2021/09/27 03:26:02;;;;;;;12.65;9.65;;;;;;;23.43;56.03;101452.91;5001409;28;20172;-68
2021/09/27 03:29:38;;;;;;;11.00;8.93;;;;;;;23.45;56.15;101464.16;4969082;28;20158;-68
2021/09/27 03:33:19;;;;;;;11.70;9.00;;;;;;;23.41;56.35;101466.38;4947847;28;20054;-68
2021/09/27 03:36:27;;;;;;;13.23;8.77;;;;;;;23.43;56.21;101460.88;4966590;28;20043;-68
2021/09/27 03:39:42;;;;;;;11.82;8.45;;;;;;;23.43;56.22;101468.84;4949460;28;20488;-67
2021/09/27 03:43:08;;;;;;;12.43;9.00;;;;;;;23.44;56.16;101457.19;4931584;28;20043;-67
2021/09/27 03:46:48;;;;;;;12.02;8.95;;;;;;;23.42;56.00;101452.06;4938879;28;20040;-68
2021/09/27 03:49:37;;;;;;;13.68;8.82;;;;;;;23.44;56.30;101449.22;4961102;28;20468;-68
2021/09/27 03:52:39;;;;;;;12.43;9.18;;;;;;;23.45;56.10;101450.88;4951822;28;20047;-68
2021/09/27 03:56:04;;;;;;;13.02;9.38;;;;;;;23.38;56.44;101448.16;4957910;28;20800;-67
2021/09/27 03:59:45;;;;;;;12.07;9.02;;;;;;;23.42;56.17;101459.22;4973284;28;20076;-68
2021/09/27 04:02:41;;;;;;;11.20;8.75;;;;;;;23.35;56.30;101453.84;4953013;28;20041;-68
2021/09/27 04:05:06;;;;;;;12.77;9.48;;;;;;;23.39;56.02;101452.47;4983528;28;20078;-68
2021/09/27 04:08:06;;;;;;;11.18;8.38;;;;;;;23.36;56.49;101441.38;4982313;28;20069;-68
2021/09/27 04:11:04;;;;;;;11.57;8.75;;;;;;;23.36;56.45;101439.56;4981608;28;20087;-68
2021/09/27 04:13:50;;;;;;;10.90;7.70;;;;;;;23.42;55.90;101444.09;4980545;28;20042;-68
2021/09/27 04:16:31;;;;;;;11.15;8.35;;;;;;;23.38;56.22;101442.03;4981099;28;20089;-67
2021/09/27 04:19:02;;;;;;;10.32;7.85;;;;;;;23.42;55.83;101435.31;4982388;28;20056;-68
2021/09/27 04:21:51;;;;;;;11.15;8.48;;;;;;;23.38;56.13;101434.06;4982003;28;20073;-68
2021/09/27 04:24:22;;;;;;;12.98;8.63;;;;;;;23.37;56.06;101432.41;4994521;28;20049;-68
2021/09/27 04:26:59;;;;;;;9.98;8.18;;;;;;;23.39;55.88;101423.22;5002115;28;20100;-68
2021/09/27 04:29:57;;;;;;;10.00;7.97;;;;;;;23.37;56.19;101421.78;5001577;28;20049;-68
2021/09/27 04:32:46;;;;;;;12.73;8.50;;;;;;;23.37;56.13;101419.13;5002644;28;20038;-68
2021/09/27 04:35:25;;;;;;;9.07;7.90;;;;;;;23.40;56.16;101419.56;5002588;28;20133;-68
2021/09/27 04:37:51;;;;;;;11.13;8.27;;;;;;;23.38;56.15;101407.47;5003589;28;20136;-68
2021/09/27 04:40:37;;;;;;;14.23;8.82;;;;;;;23.38;55.95;101408.28;5006689;28;20038;-68
2021/09/27 04:43:16;;;;;;;10.27;8.13;;;;;;;23.36;55.98;101417.47;4993962;28;20042;-68
2021/09/27 04:46:09;;;;;;;10.93;8.65;;;;;;;23.30;56.29;101420.88;5000138;28;20041;-67
2021/09/27 04:49:02;;;;;;;11.93;8.70;;;;;;;23.34;56.17;101415.00;5005576;28;20057;-68
2021/09/27 04:51:36;;;;;;;10.48;7.78;;;;;;;23.36;55.95;101414.81;5005090;28;20058;-66
2021/09/27 04:54:28;;;;;;;11.18;7.85;;;;;;;23.36;56.08;101412.97;5005697;28;20502;-67
2021/09/27 04:57:06;;;;;;;12.52;8.52;;;;;;;23.34;56.25;101416.81;5002889;28;20038;-67
2021/09/27 05:00:09;;;;;;;11.45;8.45;;;;;;;23.33;56.10;101409.84;5003603;28;20072;-67
2021/09/27 05:02:52;;;;;;;12.02;9.35;;;;;;;23.41;55.93;101412.41;4993350;28;20801;-68
2021/09/27 05:05:35;;;;;;;10.07;7.70;;;;;;;23.33;56.04;101412.50;4997714;28;20193;-68
2021/09/27 05:08:40;;;;;;;10.65;8.18;;;;;;;23.21;56.18;101398.91;5006136;28;20045;-68
2021/09/27 05:11:35;;;;;;;10.48;8.10;;;;;;;23.30;56.13;101405.75;5001106;28;20048;-68
2021/09/27 05:14:28;;;;;;;12.82;8.68;;;;;;;23.35;56.14;101400.72;5002278;28;20054;-68
2021/09/27 05:17:03;;;;;;;10.48;8.07;;;;;;;23.30;56.27;101399.59;5004551;28;20114;-68
2021/09/27 05:19:37;;;;;;;11.73;8.00;;;;;;;23.33;56.25;101402.69;5005501;28;20128;-68
2021/09/27 05:22:30;;;;;;;11.02;8.20;;;;;;;23.36;55.92;101398.88;5004504;28;20042;-68
2021/09/27 05:25:40;;;;;;;11.18;8.35;;;;;;;23.28;56.21;101393.66;5006241;28;20042;-68
2021/09/27 05:28:30;;;;;;;9.82;8.07;;;;;;;23.26;56.44;101401.00;4996012;28;20049;-68
2021/09/27 05:31:21;;;;;;;10.35;8.15;;;;;;;23.31;55.88;101398.59;4997170;28;20522;-67
2021/09/27 05:34:04;;;;;;;10.38;7.90;;;;;;;23.28;55.97;101386.50;5005151;28;20495;-68
2021/09/27 05:36:30;;;;;;;10.55;7.20;;;;;;;23.34;55.79;101388.44;5004242;28;20919;-68
2021/09/27 05:39:26;;;;;;;11.40;8.50;;;;;;;23.30;55.81;101392.44;5004156;28;20117;-68
2021/09/27 05:42:24;;;;;;;10.75;7.60;;;;;;;23.28;55.97;101389.16;5005563;28;20046;-68
2021/09/27 05:45:09;;;;;;;10.32;7.72;;;;;;;23.28;56.12;101394.47;4986058;28;20049;-68
2021/09/27 05:47:58;;;;;;;11.90;8.30;;;;;;;23.26;56.08;101393.84;5002895;28;20069;-68
2021/09/27 05:50:54;;;;;;;10.10;7.83;;;;;;;23.29;56.06;101396.13;5003974;28;20103;-67
2021/09/27 05:53:39;;;;;;;10.85;7.78;;;;;;;23.28;55.97;101391.81;5004710;28;20388;-68
2021/09/27 05:56:35;;;;;;;9.93;7.68;;;;;;;23.29;55.91;101397.97;5003889;28;20443;-68
2021/09/27 05:59:04;;;;;;;10.55;8.00;;;;;;;23.24;56.12;101390.56;4997385;28;20045;-67
2021/09/27 06:01:46;;;;;;;9.30;7.53;;;;;;;23.29;55.82;101396.13;5002247;28;20034;-68
2021/09/27 06:04:34;;;;;;;11.13;7.63;;;;;;;23.28;56.01;101397.13;5003737;28;20042;-67
2021/09/27 06:07:06;;;;;;;10.98;7.90;;;;;;;23.25;56.02;101400.19;4977154;28;20662;-68
2021/09/27 06:09:52;;;;;;;9.85;7.55;;;;;;;23.24;56.05;101403.84;5004588;28;20045;-68
2021/09/27 06:12:29;;;;;;;11.70;8.75;;;;;;;23.24;56.25;101397.72;5004618;28;20045;-68
2021/09/27 06:14:58;;;;;;;10.93;8.32;;;;;;;23.21;56.20;101402.41;5004873;28;20111;-67
2021/09/27 06:17:29;;;;;;;11.25;8.77;;;;;;;23.23;56.24;101398.72;5004993;28;20093;-68
2021/09/27 06:20:22;;;;;;;12.32;8.00;;;;;;;23.19;56.26;101398.28;5004169;28;20706;-68
2021/09/27 06:23:06;;;;;;;9.98;7.60;;;;;;;23.31;55.97;101396.75;5010688;28;20046;-68
2021/09/27 06:25:52;;;;;;;11.10;7.90;;;;;;;23.23;56.18;101396.88;5025875;28;20045;-68
2021/09/27 06:28:38;;;;;;;10.38;7.53;;;;;;;23.27;55.87;101400.00;5010564;28;20073;-68
2021/09/27 06:31:35;;;;;;;10.52;8.23;;;;;;;23.26;55.84;101393.84;5021937;28;20056;-68
2021/09/27 06:34:41;;;;;;;9.60;7.80;;;;;;;23.23;55.98;101386.25;4962447;28;20050;-68
2021/09/27 06:37:07;;;;;;;10.40;7.22;;;;;;;23.16;56.15;101391.53;5000233;28;20554;-68
2021/09/27 06:39:33;;;;;;;11.85;9.02;;;;;;;23.21;55.91;101383.78;5017506;28;20076;-68
2021/09/27 06:41:59;;;;;;;8.90;7.45;;;;;;;23.14;56.02;101376.75;5016135;28;20405;-68
2021/09/27 06:44:25;;;;;;;11.57;8.35;;;;;;;23.24;56.16;101387.09;5017386;28;20025;-68
2021/09/27 06:46:54;;;;;;;10.00;8.23;;;;;;;23.27;55.92;101379.56;5012727;28;20490;-67
2021/09/27 06:49:21;;;;;;;11.10;8.52;;;;;;;23.21;55.99;101380.31;5021205;28;20085;-68
2021/09/27 06:51:48;;;;;;;10.40;7.90;;;;;;;23.17;55.87;101376.41;5050959;28;20055;-67
2021/09/27 06:54:17;;;;;;;10.82;7.63;;;;;;;23.19;56.14;101371.72;5043618;28;20025;-68
2021/09/27 06:56:45;;;;;;;12.20;8.38;;;;;;;23.17;56.00;101365.78;5046844;28;20132;-67
2021/09/27 06:59:12;;;;;;;11.57;8.43;;;;;;;23.10;56.04;101367.53;5047360;28;20047;-68
2021/09/27 07:01:38;;;;;;;11.20;8.88;;;;;;;23.23;55.95;101383.59;5043644;28;20687;-68
2021/09/27 07:04:05;;;;;;;9.52;7.60;;;;;;;23.22;56.25;101376.66;5047902;28;20044;-67
2021/09/27 07:06:30;;;;;;;11.90;8.77;;;;;;;23.20;56.05;101371.53;5046629;28;20032;-68
2021/09/27 07:08:56;;;;;;;10.60;7.90;;;;;;;23.19;55.85;101374.38;5044497;28;20532;-68
2021/09/27 07:11:23;;;;;;;10.15;7.95;;;;;;;23.25;55.96;101370.13;5042118;28;20102;-67
2021/09/27 07:13:48;;;;;;;10.18;7.82;;;;;;;23.20;56.15;101357.41;5042647;28;20087;-68
2021/09/27 07:16:14;;;;;;;10.05;7.65;;;;;;;23.24;55.94;101358.69;5048353;28;20025;-68
2021/09/27 07:18:40;;;;;;;11.30;8.10;;;;;;;23.21;56.04;101361.72;5044018;28;20048;-68
2021/09/27 07:21:07;;;;;;;9.90;7.47;;;;;;;23.13;56.12;101343.22;5046665;28;20025;-68
2021/09/27 07:23:38;;;;;;;11.10;7.90;;;;;;;23.25;55.88;101356.84;5040909;28;20037;-68
2021/09/27 07:26:05;;;;;;;11.32;7.93;;;;;;;23.25;55.95;101355.00;5034188;28;20120;-68
2021/09/27 07:28:30;;;;;;;12.40;8.73;;;;;;;23.19;56.04;101356.59;5059747;28;20035;-68
2021/09/27 07:30:56;;;;;;;12.80;8.98;;;;;;;23.18;56.13;101359.44;5044836;28;20052;-68
2021/09/27 07:33:22;;;;;;;12.90;8.52;;;;;;;23.19;55.95;101359.25;5043735;28;20139;-68
2021/09/27 07:35:47;;;;;;;12.70;9.05;;;;;;;23.19;56.01;101356.59;5042655;28;20052;-68
2021/09/27 07:38:13;;;;;;;12.40;8.70;;;;;;;23.24;55.87;101352.53;5049761;28;20036;-68
2021/09/27 07:40:39;;;;;;;11.75;8.60;;;;;;;23.20;56.08;101354.75;5041356;28;20049;-67
2021/09/27 07:43:06;;;;;;;14.45;9.20;;;;;;;23.21;55.86;101349.25;5045096;28;20041;-67
2021/09/27 07:45:34;;;;;;;11.45;8.60;;;;;;;23.22;55.77;101352.72;5043205;28;20086;-68
2021/09/27 07:48:06;;;;;;;10.88;8.13;;;;;;;23.28;55.74;101351.16;5040432;28;20116;-68
2021/09/27 07:50:33;;;;;;;12.85;8.88;;;;;;;23.28;55.94;101351.16;5054353;28;20052;-68
2021/09/27 07:53:00;;;;;;;12.10;8.27;;;;;;;23.23;56.04;101348.25;5062513;28;20421;-67
2021/09/27 07:55:26;;;;;;;13.52;8.82;;;;;;;23.22;56.14;101352.72;5060505;28;20046;-68
2021/09/27 07:57:51;;;;;;;13.63;8.93;;;;;;;23.20;55.81;101349.44;5061548;28;20600;-68
2021/09/27 08:00:18;;;;;;;15.23;9.38;;;;;;;23.10;56.58;101359.53;5065800;28;20041;-68
2021/09/27 08:02:44;;;;;;;13.93;9.32;;;;;;;23.15;57.04;101357.97;5064441;28;20032;-66
2021/09/27 08:05:19;;;;;;;15.60;9.32;;;;;;;23.09;57.11;101357.91;5064641;28;20024;-67
2021/09/27 08:07:45;;;;;;;14.07;8.45;;;;;;;23.13;56.83;101356.50;5062607;28;20497;-66
2021/09/27 08:10:13;;;;;;;13.35;8.85;;;;;;;23.18;56.50;101354.94;5056366;28;20028;-67
2021/09/27 08:12:38;;;;;;;13.50;9.35;;;;;;;23.11;56.48;101343.41;5059531;28;20182;-67
2021/09/27 08:15:11;;;;;;;14.70;9.45;;;;;;;23.19;56.33;101361.09;5068248;28;20494;-67
2021/09/27 08:17:37;;;;;;;14.35;9.20;;;;;;;23.16;56.56;101348.16;5068588;28;20033;-68
2021/09/27 08:20:05;;;;;;;12.98;8.55;;;;;;;23.18;56.33;101351.47;5068446;28;20385;-69
2021/09/27 08:22:31;;;;;;;11.18;8.70;;;;;;;23.20;56.58;101344.94;5062123;28;20025;-69
2021/09/27 08:24:57;;;;;;;15.60;9.43;;;;;;;23.18;56.37;101352.28;5066337;28;20040;-69
2021/09/27 08:27:23;;;;;;;11.05;7.72;;;;;;;23.19;56.29;101347.81;5059834;28;20067;-69
2021/09/27 08:29:48;;;;;;;11.60;7.97;;;;;;;23.21;56.59;101338.63;5069245;28;20040;-69
2021/09/27 08:32:13;;;;;;;13.98;8.77;;;;;;;23.20;56.60;101334.31;5057927;28;20489;-69
2021/09/27 08:34:41;;;;;;;14.15;8.65;;;;;;;23.24;56.33;101333.94;5065338;28;20505;-69
2021/09/27 08:37:07;;;;;;;13.60;8.70;;;;;;;23.26;56.40;101319.44;5043649;28;20039;-69
2021/09/27 08:39:33;;;;;;;14.88;8.73;;;;;;;23.27;56.29;101318.44;5067934;28;20044;-69
2021/09/27 08:42:04;;;;;;;12.07;8.98;;;;;;;23.21;56.62;101319.22;5067873;28;20040;-69
2021/09/27 08:45:02;;;;;;;13.85;9.57;;;;;;;23.21;56.58;101320.03;5067503;28;20037;-70
2021/09/27 08:47:44;;;;;;;12.77;8.65;;;;;;;23.26;56.43;101321.28;5063990;28;20154;-69
2021/09/27 08:50:25;;;;;;;12.93;9.05;;;;;;;23.24;56.26;101316.16;5057813;28;20068;-69
2021/09/27 08:52:51;;;;;;;11.65;8.30;;;;;;;23.25;56.37;101307.19;5066511;28;20923;-69
2021/09/27 08:55:17;;;;;;;13.57;9.27;;;;;;;23.20;56.64;101315.72;5058586;28;20074;-69
2021/09/27 08:58:09;;;;;;;12.68;8.70;;;;;;;23.24;56.42;101305.53;5065277;28;20409;-69
2021/09/27 09:00:40;;;;;;;12.73;8.88;;;;;;;23.20;56.36;101302.44;5059716;28;20123;-69
2021/09/27 09:03:11;;;;;;;16.13;9.68;;;;;;;23.27;56.44;101302.50;5065222;28;20024;-69
2021/09/27 09:05:43;;;;;;;15.48;9.50;;;;;;;23.25;56.44;101296.56;5066147;28;20036;-69
2021/09/27 09:08:15;;;;;;;14.98;9.13;;;;;;;23.26;56.31;101300.03;5069751;28;20093;-69
2021/09/27 09:10:59;;;;;;;12.25;8.60;;;;;;;23.25;56.37;101298.38;5076732;28;20044;-69
2021/09/27 09:13:36;;;;;;;13.43;8.50;;;;;;;23.24;56.46;101289.59;5065686;28;20067;-69
2021/09/27 09:16:05;;;;;;;14.32;9.23;;;;;;;23.27;56.44;101294.53;5060609;28;20541;-69
2021/09/27 09:18:50;;;;;;;14.40;9.60;;;;;;;23.24;56.50;101302.06;5067267;28;20570;-69
2021/09/27 09:21:43;;;;;;;14.52;9.18;;;;;;;23.23;56.79;101298.59;5065159;28;20031;-69
2021/09/27 09:24:14;;;;;;;14.00;8.70;;;;;;;23.24;56.70;101302.06;5063343;28;20040;-69
2021/09/27 09:26:44;;;;;;;15.23;9.13;;;;;;;23.25;56.64;101304.53;5059464;28;20115;-69
2021/09/27 09:29:11;;;;;;;15.20;9.77;;;;;;;23.33;56.78;101291.09;5066758;28;20044;-65
2021/09/27 09:31:45;;;;;;;16.30;10.07;;;;;;;23.61;56.29;101290.31;5040697;28;20056;-66
2021/09/27 09:34:17;;;;;;;14.07;9.35;;;;;;;23.71;56.03;101296.13;5064101;28;20115;-65
2021/09/27 09:36:44;;;;;;;14.65;9.40;;;;;;;23.74;56.22;101293.09;5063896;28;20042;-67
2021/09/27 09:39:31;;;;;;;15.65;9.68;;;;;;;23.78;56.16;101281.88;5051913;28;20028;-66
2021/09/27 09:42:01;;;;;;;16.02;9.15;;;;;;;23.77;56.14;101277.56;5062349;28;20043;-68
2021/09/27 09:44:27;;;;;;;;;;;;;;;23.85;56.13;101284.56;5056395;28;20028;-67
2021/09/27 09:47:09;;;;;;;16.30;9.30;;;;;;;23.89;56.05;101274.38;5044581;28;19961;-66
2021/09/27 09:49:53;;;;;;;14.52;9.30;;;;;;;23.90;56.03;101270.69;5058675;28;20040;-64
2021/09/27 09:52:32;;;;;;;13.95;8.65;;;;;;;24.00;55.49;101265.81;5065110;28;20060;-66
2021/09/27 09:54:59;;;;;;;15.55;10.07;;;;;;;24.00;55.71;101263.97;5042164;28;20048;-66
2021/09/27 09:57:27;;;;;;;14.63;8.60;;;;;;;23.99;55.76;101256.19;5063657;28;20354;-67
2021/09/27 10:00:00;;;;;;;16.25;9.52;;;;;;;24.02;55.72;101251.28;5041647;28;20498;-64
2021/09/27 10:02:27;;;;;;;14.18;8.57;;;;;;;24.07;55.64;101256.88;5065354;28;20044;-65
2021/09/27 10:05:04;;;;;;;13.93;9.30;;;;;;;24.07;55.40;101246.22;5035139;28;20142;-66
2021/09/27 10:07:44;;;;;;;12.95;8.98;;;;;;;24.11;55.56;101251.97;5063178;28;20048;-65
2021/09/27 10:10:25;;;;;;;15.98;9.55;;;;;;;23.96;55.95;101256.59;5043811;28;20063;-67
2021/09/27 10:12:51;;;;;;;13.00;9.15;;;;;;;24.11;55.50;101251.97;5063270;28;20039;-68
2021/09/27 10:15:25;;;;;;;16.77;9.07;;;;;;;24.23;54.93;101257.53;5042853;28;20020;-67
2021/09/27 10:18:19;;;;;;;14.93;8.32;;;;;;;24.24;55.20;101254.69;5066644;28;20177;-67
2021/09/27 10:21:26;;;;;;;13.60;9.00;;;;;;;24.32;54.87;101251.88;5024644;28;20500;-68
2021/09/27 10:24:13;;;;;;;13.95;8.27;;;;;;;24.34;54.76;101251.66;4995617;28;20549;-67
2021/09/27 10:26:40;;;;;;;12.10;8.23;;;;;;;24.29;54.95;101249.63;4962307;28;20109;-68
2021/09/27 10:29:14;;;;;;;12.60;9.27;;;;;;;24.17;55.22;101253.00;5039629;28;20591;-67
2021/09/27 10:31:48;;;;;;;15.85;9.43;;;;;;;24.14;55.25;101256.06;5041912;28;20043;-67
2021/09/27 10:34:17;;;;;;;15.68;9.48;;;;;;;24.03;55.97;101260.91;5061745;28;20075;-67
2021/09/27 10:36:45;;;;;;;12.35;8.23;;;;;;;24.21;55.47;101264.88;5033591;28;20068;-69
2021/09/27 10:39:13;;;;;;;13.23;8.73;;;;;;;24.27;55.38;101256.13;5064804;28;20035;-65
2021/09/27 10:41:53;;;;;;;19.30;8.93;;;;;;;24.28;55.09;101258.59;5043844;28;20044;-64
2021/09/27 10:44:21;;;;;;;;;;;;;;;24.35;54.88;101256.78;5049761;28;20044;-64
2021/09/27 10:46:51;;;;;;;18.52;10.20;;;;;;;24.32;54.92;101249.22;5063058;28;20389;-64
2021/09/27 10:49:28;;;;;;;12.63;8.63;;;;;;;24.31;55.30;101249.41;5046083;28;20101;-66
2021/09/27 10:52:06;;;;;;;12.95;7.80;;;;;;;24.35;55.00;101255.97;5052928;28;20055;-63
2021/09/27 10:55:28;;;;;;;12.88;8.57;;;;;;;24.49;54.70;101244.34;5054910;28;20374;-64
2021/09/27 10:57:58;;;;;;;13.40;8.70;;;;;;;24.50;54.50;101251.31;5032477;28;20045;-68
2021/09/27 11:00:32;;;;;;;13.32;8.48;;;;;;;24.35;54.71;101232.03;5032443;28;20036;-68
2021/09/27 11:03:20;;;;;;;12.82;9.40;;;;;;;24.13;54.64;101199.38;5039505;28;20044;-68
2021/09/27 11:06:17;;;;;;;16.90;9.05;;;;;;;24.27;54.85;101227.69;5050962;28;20044;-66
2021/09/27 11:08:45;;;;;;;10.60;8.00;;;;;;;24.27;55.10;101232.19;5040720;28;20032;-67
2021/09/27 11:11:29;;;;;;;13.60;8.80;;;;;;;24.36;54.88;101234.47;5052834;28;20039;-69
2021/09/27 11:14:00;;;;;;;12.77;8.63;;;;;;;24.41;54.70;101228.53;5061182;28;20046;-70
2021/09/27 11:16:28;;;;;;;14.20;8.85;;;;;;;24.45;54.37;101216.50;5041373;28;20390;-69
2021/09/27 11:18:59;;;;;;;12.07;8.07;;;;;;;24.47;54.52;101222.44;5057478;28;20059;-70
2021/09/27 11:21:51;;;;;;;10.80;7.97;;;;;;;24.48;54.40;101228.59;5045043;28;20386;-70
2021/09/27 11:24:16;;;;;;;12.50;8.13;;;;;;;24.49;54.39;101224.91;5066027;28;20072;-69
2021/09/27 11:27:00;;;;;;;11.57;7.63;;;;;;;24.50;54.43;101224.69;5033351;28;20042;-69
2021/09/27 11:29:34;;;;;;;12.07;7.80;;;;;;;24.51;54.29;101223.69;5063534;28;20050;-70
2021/09/27 11:32:12;;;;;;;9.75;7.60;;;;;;;24.51;54.36;101215.69;5049362;28;20123;-70
2021/09/27 11:34:38;;;;;;;10.73;7.28;;;;;;;24.56;54.13;101202.59;5064324;28;20037;-70
2021/09/27 11:37:29;;;;;;;11.23;7.75;;;;;;;24.58;54.22;101202.38;5045267;28;20036;-71
2021/09/27 11:40:00;;;;;;;11.70;8.00;;;;;;;24.56;54.17;101213.22;5056222;28;20123;-71
2021/09/27 11:42:31;;;;;;;10.18;8.15;;;;;;;24.55;54.05;101210.78;5039462;28;20695;-71
2021/09/27 11:45:00;;;;;;;12.48;7.80;;;;;;;24.56;54.30;101202.59;5057116;28;20339;-69
2021/09/27 11:47:45;;;;;;;11.50;7.65;;;;;;;24.56;54.25;101199.91;5066043;28;20603;-69
2021/09/27 11:50:47;;;;;;;9.90;7.43;;;;;;;24.55;54.41;101203.59;5047340;28;20063;-68
2021/09/27 11:54:04;;;;;;;13.07;8.27;;;;;;;24.55;54.18;101192.13;5042396;28;20032;-69
2021/09/27 11:56:35;;;;;;;10.55;7.78;;;;;;;24.57;54.17;101198.91;5039925;28;20206;-70
2021/09/27 11:59:21;;;;;;;9.60;7.03;;;;;;;24.60;54.15;101201.19;5032202;28;20588;-69
2021/09/27 12:02:11;;;;;;;9.10;7.50;;;;;;;24.60;54.03;101197.69;5066947;28;20042;-69
2021/09/27 12:04:55;;;;;;;10.43;7.72;;;;;;;24.62;53.98;101196.47;5043397;28;20133;-69
2021/09/27 12:07:35;;;;;;;10.07;7.95;;;;;;;24.60;54.11;101190.53;5065052;28;20036;-70
2021/09/27 12:10:14;;;;;;;9.65;7.78;;;;;;;24.62;54.04;101195.66;5040263;28;20040;-68
2021/09/27 12:12:43;;;;;;;10.10;8.25;;;;;;;24.61;54.17;101192.16;5044031;28;20052;-69
2021/09/27 12:15:10;;;;;;;10.27;7.85;;;;;;;24.64;53.89;101194.41;5030860;28;20120;-69
2021/09/27 12:17:39;;;;;;;12.70;7.80;;;;;;;24.64;53.81;101193.59;5064793;28;20490;-69
2021/09/27 12:20:09;;;;;;;11.40;7.93;;;;;;;24.64;53.74;101194.41;5047724;28;20044;-70
2021/09/27 12:22:57;;;;;;;12.57;8.05;;;;;;;24.65;54.07;101197.91;5063778;28;20044;-70
2021/09/27 12:25:35;;;;;;;10.90;8.32;;;;;;;24.61;53.80;101184.19;5031753;28;20029;-70
2021/09/27 12:28:05;;;;;;;10.35;8.02;;;;;;;24.65;53.75;101184.59;5066082;28;20033;-69
2021/09/27 12:30:35;;;;;;;10.52;8.02;;;;;;;24.65;53.87;101171.28;5042645;28;20040;-69
2021/09/27 12:33:02;;;;;;;;;;;;;;;24.67;53.84;101179.88;5061558;28;20068;-70
2021/09/27 12:35:37;;;;;;;10.38;7.32;;;;;;;24.68;53.98;101179.66;5062546;28;19920;-70
2021/09/27 12:38:04;;;;;;;12.05;8.07;;;;;;;24.69;53.85;101181.31;5045050;28;20036;-68
2021/09/27 12:40:46;;;;;;;11.02;8.38;;;;;;;24.68;53.69;101186.84;5063015;28;20155;-70
2021/09/27 12:43:17;;;;;;;11.05;7.65;;;;;;;24.69;53.72;101180.50;5033407;28;20090;-69
2021/09/27 12:45:55;;;;;;;12.00;8.25;;;;;;;24.72;53.70;101172.09;5063875;28;20354;-68
2021/09/27 12:48:27;;;;;;;11.48;8.15;;;;;;;24.73;53.79;101175.56;5048965;28;20036;-70
2021/09/27 12:51:10;;;;;;;10.27;7.97;;;;;;;24.58;53.76;101159.78;5068485;28;20448;-70
2021/09/27 12:53:44;;;;;;;12.25;8.00;;;;;;;24.67;53.99;101174.56;5045202;28;20032;-66
2021/09/27 12:56:12;;;;;;;12.32;7.97;;;;;;;24.80;53.73;101171.09;5065798;28;20044;-67
2021/09/27 12:58:45;;;;;;;9.48;7.05;;;;;;;24.87;53.48;101158.56;5040997;28;20032;-68
2021/09/27 13:01:19;;;;;;;13.00;8.23;;;;;;;24.86;53.37;101163.09;5065806;28;20036;-67
2021/09/27 13:04:01;;;;;;;12.73;8.13;;;;;;;24.99;53.37;101170.25;5032706;28;20060;-64
2021/09/27 13:06:30;;;;;;;10.40;6.65;;;;;;;25.03;53.41;101160.84;5049160;28;20024;-66
2021/09/27 13:09:23;;;;;;;10.68;7.60;;;;;;;25.03;53.59;101168.03;5045483;28;20404;-65
2021/09/27 13:12:07;;;;;;;10.95;7.68;;;;;;;25.06;53.27;101165.78;5065468;28;20028;-66
2021/09/27 13:14:33;;;;;;;10.00;7.30;;;;;;;25.09;53.26;101169.88;5042170;28;20123;-65
2021/09/27 13:17:29;;;;;;;10.30;7.47;;;;;;;25.07;53.66;101171.91;5065474;28;20036;-69
2021/09/27 13:20:01;;;;;;;12.02;7.45;;;;;;;25.08;53.50;101166.38;5018605;28;20052;-68
2021/09/27 13:22:30;;;;;;;9.57;7.25;;;;;;;25.08;53.48;101174.38;5065458;28;20119;-68
2021/09/27 13:25:12;;;;;;;13.02;7.50;;;;;;;25.12;53.36;101180.09;5041928;28;20042;-66
2021/09/27 13:27:52;;;;;;;12.00;7.38;;;;;;;25.08;53.64;101176.22;5067390;28;20041;-66
2021/09/27 13:30:24;;;;;;;11.13;7.35;;;;;;;25.13;53.51;101174.56;5040977;28;20028;-67
2021/09/27 13:32:52;;;;;;;10.52;6.53;;;;;;;25.26;53.19;101177.22;5063711;28;20032;-65
2021/09/27 13:35:21;;;;;;;11.00;7.07;;;;;;;25.26;52.98;101171.06;5035900;28;20060;-65
2021/09/27 13:38:15;;;;;;;10.48;7.10;;;;;;;25.25;53.03;101172.91;5066006;28;20043;-67
2021/09/27 13:41:03;;;;;;;9.55;6.65;;;;;;;25.26;53.28;101163.91;5043722;28;20040;-66
2021/09/27 13:43:34;;;;;;;10.80;7.10;;;;;;;25.27;53.32;101175.38;5066864;28;20067;-69
2021/09/27 13:46:13;;;;;;;10.55;6.90;;;;;;;25.33;53.11;101179.91;5036363;28;20036;-67
2021/09/27 13:48:38;;;;;;;9.27;7.05;;;;;;;25.35;53.09;101177.03;5065595;28;20040;-67
2021/09/27 13:51:04;;;;;;;10.82;7.68;;;;;;;25.34;53.19;101170.88;5043313;28;20056;-66
2021/09/27 13:53:39;;;;;;;11.43;7.07;;;;;;;25.42;52.66;101169.81;5056864;28;20040;-69
2021/09/27 13:56:10;;;;;;;9.32;7.57;;;;;;;25.33;52.92;101166.56;5065099;28;20028;-67
2021/09/27 13:58:36;;;;;;;12.80;7.07;;;;;;;25.32;53.00;101162.25;5042819;28;20490;-66
2021/09/27 14:01:02;;;;;;;11.20;7.43;;;;;;;25.45;52.83;101170.22;5065996;28;20029;-66
2021/09/27 14:03:29;;;;;;;11.88;7.30;;;;;;;25.39;53.12;101164.91;5038964;28;20036;-66
2021/09/27 14:05:57;;;;;;;10.05;7.25;;;;;;;25.39;53.02;101170.25;5065884;28;20044;-65
2021/09/27 14:08:23;;;;;;;10.32;7.53;;;;;;;25.46;52.66;101165.69;5039308;28;20512;-63
2021/09/27 14:10:50;;;;;;;12.80;7.38;;;;;;;25.46;52.93;101173.69;5056352;28;20036;-64
2021/09/27 14:13:17;;;;;;;10.60;7.13;;;;;;;25.26;52.70;101147.91;5064962;28;20039;-66
2021/09/27 14:15:45;;;;;;;16.42;6.90;;;;;;;25.28;53.20;101172.50;5041285;28;20508;-66
2021/09/27 14:18:11;;;;;;;12.48;8.07;;;;;;;25.20;53.42;101180.72;5066662;28;20036;-64
2021/09/27 14:20:37;;;;;;;11.00;7.45;;;;;;;25.21;53.53;101177.03;5039791;28;20048;-65
2021/09/27 14:23:04;;;;;;;9.77;6.75;;;;;;;25.17;53.43;101177.66;5060137;28;20035;-65
2021/09/27 14:25:29;;;;;;;8.98;6.60;;;;;;;25.16;53.48;101190.16;5037353;28;20036;-65